Scot Bremen — 9HA4091 — position and weather

sailwx.info

Track history (hours):
 
Tides and Currents Weather Stations Pressure Air Temp Water Temp Dewpoint Dewpoint Depression Visibility Wind Speed Wind Dir Waves Ship Positions

Scot Bremen

Last reported at 2017-Sep-20 12:42 UTC. Time now 2017-Sep-22 01:13 UTC.
Position N 49°28' W 004°24'.

Length 117 m; draft 6.1 m.

Type: Ship. MMSI: 249086000.

Date/timePositionNaut miles runAvg speedWind from/ knotsBaromVisibWave heightAir tempDewpointWater temp
2017-Sep-20 12:42N 49°28' W 004°24'314.0
2017-Sep-20 12:29N 49°29' W 004°20'714.2
2017-Sep-20 12:00N 49°33' W 004°11'714.6
2017-Sep-20 11:30N 49°36' W 004°01'714.5
2017-Sep-20 11:01N 49°40' W 003°52'714.4
2017-Sep-20 10:30N 49°44' W 003°42'714.1
2017-Sep-20 10:01N 49°48' W 003°33'713.6
2017-Sep-20 09:30N 49°51' W 003°24'613.0
2017-Sep-20 09:01N 49°54' W 003°15'612.4
2017-Sep-20 08:30N 49°57' W 003°06'611.8
2017-Sep-20 08:00N 49°59' W 002°58'611.3
2017-Sep-20 07:31N 50°01' W 002°50'511.0
2017-Sep-20 07:00N 50°02' W 002°41'510.9
2017-Sep-20 06:30N 50°04' W 002°33'611.2
2017-Sep-20 06:00N 50°05' W 002°25'611.6
2017-Sep-20 05:30N 50°07' W 002°16'612.3
2017-Sep-20 05:00N 50°09' W 002°07'713.2
2017-Sep-20 04:30N 50°11' W 001°57'1214.7
2017-Sep-20 03:41N 50°14' W 001°39'4916.1
2017-Sep-20 00:39N 50°27' W 000°25'214.9
2017-Sep-20 00:30N 50°28' W 000°22'714.5
2017-Sep-20 00:00N 50°30' W 000°11'713.8
2017-Sep-19 23:31N 50°31' W 000°01'713.3
2017-Sep-19 23:01N 50°33' E 000°10'612.7
2017-Sep-19 22:31N 50°35' E 000°19'612.3
2017-Sep-19 22:01N 50°37' E 000°28'611.8
2017-Sep-19 21:31N 50°39' E 000°37'611.8
2017-Sep-19 21:01N 50°42' E 000°45'612.0
2017-Sep-19 20:31N 50°46' E 000°52'612.7
2017-Sep-19 20:00N 50°50' E 001°00'713.6
2017-Sep-19 19:30N 50°54' E 001°08'714.8
2017-Sep-19 19:01N 50°59' E 001°17'816.0
2017-Sep-19 18:31N 51°04' E 001°28'816.2
2017-Sep-19 18:01N 51°09' E 001°38'815.4
2017-Sep-19 17:31N 51°14' E 001°47'714.5
2017-Sep-19 17:01N 51°20' E 001°54'713.1
2017-Sep-19 16:31N 51°24' E 002°01'713.5
2017-Sep-19 16:01N 51°22' E 002°11'612.7
2017-Sep-19 15:30N 51°22' E 002°21'612.6
2017-Sep-19 15:00N 51°23' E 002°32'611.9
2017-Sep-19 14:30N 51°23' E 002°41'611.1
2017-Sep-19 14:00N 51°22' E 002°50'611.3
2017-Sep-19 13:31N 51°24' E 002°59'510.7
2017-Sep-19 13:01N 51°24' E 003°07'611.2
2017-Sep-19 12:31N 51°25' E 003°16'510.6
2017-Sep-19 12:01N 51°25' E 003°24'5 9.8
2017-Sep-19 11:30N 51°26' E 003°32'4 8.2
2017-Sep-19 11:00N 51°26' E 003°39'5 9.8
2017-Sep-19 10:31N 51°23' E 003°44'4 8.5
2017-Sep-19 10:00N 51°20' E 003°49'0 0.7
2017-Sep-19 09:30N 51°20' E 003°49'1 2.2
2017-Sep-19 09:01N 51°19' E 003°50'2 4.5
2017-Sep-19 08:30N 51°16' E 003°50'3 6.2
2017-Sep-19 08:01N 51°13' E 003°48'1 2.0
2017-Sep-19 07:28N 51°12' E 003°48'0 0.0
2017-Sep-19 06:58N 51°12' E 003°48'0 0.0
2017-Sep-19 06:28N 51°12' E 003°48'0 0.0
2017-Sep-19 05:58N 51°12' E 003°48'0 0.0
2017-Sep-19 05:28N 51°12' E 003°48'0 0.0
2017-Sep-19 04:58N 51°12' E 003°48'0 0.0
2017-Sep-19 04:28N 51°12' E 003°48'0 0.0
2017-Sep-19 03:58N 51°12' E 003°48'0 0.0
2017-Sep-19 03:28N 51°12' E 003°48'0 0.0
2017-Sep-19 02:58N 51°12' E 003°48'0 0.0
2017-Sep-19 02:28N 51°12' E 003°48'0 0.0
2017-Sep-19 01:58N 51°12' E 003°48'0 0.0
2017-Sep-19 01:28N 51°12' E 003°48'0 0.0
2017-Sep-19 00:58N 51°12' E 003°48'0 0.0
2017-Sep-19 00:28N 51°12' E 003°48'0 0.0
2017-Sep-18 23:58N 51°12' E 003°48'0 0.0
2017-Sep-18 23:28N 51°12' E 003°48'0 0.0
2017-Sep-18 22:58N 51°12' E 003°48'0 0.0
2017-Sep-18 22:28N 51°12' E 003°48'0 0.0
2017-Sep-18 21:58N 51°12' E 003°48'0 0.0
2017-Sep-18 21:28N 51°12' E 003°48'0 0.0
2017-Sep-18 20:58N 51°12' E 003°48'0 0.0
2017-Sep-18 20:28N 51°12' E 003°48'0 0.0
2017-Sep-18 19:58N 51°12' E 003°48'0 0.0
2017-Sep-18 19:28N 51°12' E 003°48'0 0.0
2017-Sep-18 18:58N 51°12' E 003°48'0 0.0
2017-Sep-18 18:28N 51°12' E 003°48'0 0.0
2017-Sep-18 17:58N 51°12' E 003°48'0 0.0
2017-Sep-18 17:28N 51°12' E 003°48'0 0.0
2017-Sep-18 16:58N 51°12' E 003°48'0 0.0
2017-Sep-18 16:28N 51°12' E 003°48'0 0.0
2017-Sep-18 15:58N 51°12' E 003°48'0 0.0
2017-Sep-18 15:28N 51°12' E 003°48'0 0.0
2017-Sep-18 14:58N 51°12' E 003°48'0 0.0
2017-Sep-18 14:28N 51°12' E 003°48'0 0.0
2017-Sep-18 13:58N 51°12' E 003°48'0 0.0
2017-Sep-18 13:28N 51°12' E 003°48'0 0.0
2017-Sep-18 12:58N 51°12' E 003°48'0 0.0
2017-Sep-18 12:28N 51°12' E 003°48'0 0.0
2017-Sep-18 11:58N 51°12' E 003°48'0 0.0
2017-Sep-18 11:28N 51°12' E 003°48'0 0.0
2017-Sep-18 10:58N 51°12' E 003°48'0 0.0
2017-Sep-18 10:28N 51°12' E 003°48'0 0.0
2017-Sep-18 09:58N 51°12' E 003°48'0 0.0
2017-Sep-18 09:28N 51°12' E 003°48'0 0.0
2017-Sep-18 08:58N 51°12' E 003°48'0 0.0
2017-Sep-18 08:28N 51°12' E 003°48'0 0.0
2017-Sep-18 07:58N 51°12' E 003°48'0 0.0
2017-Sep-18 07:28N 51°12' E 003°48'0 0.0
2017-Sep-18 06:58N 51°12' E 003°48'0 0.0
2017-Sep-18 06:28N 51°12' E 003°48'0 0.0
2017-Sep-18 05:58N 51°12' E 003°48'0 0.0
2017-Sep-18 05:28N 51°12' E 003°48'0 0.0
2017-Sep-18 04:58N 51°12' E 003°48'0 0.0
2017-Sep-18 04:28N 51°12' E 003°48'0 0.0
2017-Sep-18 03:58N 51°12' E 003°48'0 0.0
2017-Sep-18 03:28N 51°12' E 003°48'0 0.0
2017-Sep-18 02:58N 51°12' E 003°48'0 0.0
2017-Sep-18 02:25N 51°12' E 003°48'0 0.0
2017-Sep-18 01:58N 51°12' E 003°48'0 0.0
2017-Sep-18 01:28N 51°12' E 003°48'0 0.0
2017-Sep-18 00:58N 51°12' E 003°48'0 0.0
2017-Sep-18 00:28N 51°12' E 003°48'0 0.0
2017-Sep-17 23:58N 51°12' E 003°48'0 0.0
2017-Sep-17 23:28N 51°12' E 003°48'0 0.0
2017-Sep-17 22:58N 51°12' E 003°48'0 0.0
2017-Sep-17 22:28N 51°12' E 003°48'0 0.0
2017-Sep-17 21:58N 51°12' E 003°48'0 0.0
2017-Sep-17 21:28N 51°12' E 003°48'0 0.0
2017-Sep-17 20:58N 51°12' E 003°48'0 0.0
2017-Sep-17 20:28N 51°12' E 003°48'0 0.0
2017-Sep-17 19:58N 51°12' E 003°48'0 0.0
2017-Sep-17 19:28N 51°12' E 003°48'0 0.0
2017-Sep-17 18:58N 51°12' E 003°48'0 0.0
2017-Sep-17 18:28N 51°12' E 003°48'0 0.0
2017-Sep-17 17:58N 51°12' E 003°48'0 0.0
2017-Sep-17 17:28N 51°12' E 003°48'0 0.0
2017-Sep-17 16:58N 51°12' E 003°48'0 0.0
2017-Sep-17 16:28N 51°12' E 003°48'0 0.2
2017-Sep-17 15:58N 51°12' E 003°48'0 0.0
2017-Sep-17 15:28N 51°12' E 003°48'0 0.0
2017-Sep-17 14:58N 51°12' E 003°48'0 0.0
2017-Sep-17 14:28N 51°12' E 003°48'0 0.0
2017-Sep-17 13:58N 51°12' E 003°48'0 0.0
2017-Sep-17 13:28N 51°12' E 003°48'0 0.0
2017-Sep-17 12:58N 51°12' E 003°48'0 0.0
2017-Sep-17 12:28N 51°12' E 003°48'0 0.0
2017-Sep-17 11:58N 51°12' E 003°48'0 0.0
2017-Sep-17 11:28N 51°12' E 003°48'0 0.0
2017-Sep-17 10:58N 51°12' E 003°48'0 0.0
2017-Sep-17 10:28N 51°12' E 003°48'0 0.0
2017-Sep-17 09:55N 51°12' E 003°48'0 0.0
2017-Sep-17 09:28N 51°12' E 003°48'0 0.0
2017-Sep-17 08:58N 51°12' E 003°48'0 0.0
2017-Sep-17 08:28N 51°12' E 003°48'0 0.0
2017-Sep-17 07:58N 51°12' E 003°48'0 0.0
2017-Sep-17 07:28N 51°12' E 003°48'0 0.0
2017-Sep-17 06:58N 51°12' E 003°48'0 0.0
2017-Sep-17 06:28N 51°12' E 003°48'0 0.0
2017-Sep-17 05:58N 51°12' E 003°48'0 0.0
2017-Sep-17 05:28N 51°12' E 003°48'0 0.0
2017-Sep-17 04:58N 51°12' E 003°48'0 0.0
2017-Sep-17 04:28N 51°12' E 003°48'0 0.0
2017-Sep-17 03:58N 51°12' E 003°48'0 0.0
2017-Sep-17 03:28N 51°12' E 003°48'0 0.0
2017-Sep-17 02:58N 51°12' E 003°48'0 0.0
2017-Sep-17 02:28N 51°12' E 003°48'0 0.0
2017-Sep-17 01:58N 51°12' E 003°48'0 0.0
2017-Sep-17 01:28N 51°12' E 003°48'0 0.0
2017-Sep-17 00:58N 51°12' E 003°48'0 0.0
2017-Sep-17 00:28N 51°12' E 003°48'0 0.0
2017-Sep-16 23:58N 51°12' E 003°48'0 0.0
2017-Sep-16 23:28N 51°12' E 003°48'0 0.0
2017-Sep-16 22:58N 51°12' E 003°48'0 0.0
2017-Sep-16 22:28N 51°12' E 003°48'0 0.0
2017-Sep-16 21:58N 51°12' E 003°48'0 0.0
2017-Sep-16 21:28N 51°12' E 003°48'0 0.0
2017-Sep-16 20:58N 51°12' E 003°48'0 0.0
2017-Sep-16 20:28N 51°12' E 003°48'0 0.0
2017-Sep-16 19:58N 51°12' E 003°48'0 0.0
2017-Sep-16 19:28N 51°12' E 003°48'0 0.0
2017-Sep-16 18:58N 51°12' E 003°48'0 0.0
2017-Sep-16 18:28N 51°12' E 003°48'0 0.0
2017-Sep-16 17:58N 51°12' E 003°48'0 0.0
2017-Sep-16 17:28N 51°12' E 003°48'0 0.0
2017-Sep-16 16:55N 51°12' E 003°48'0 0.0
2017-Sep-16 16:28N 51°12' E 003°48'0 0.0
2017-Sep-16 15:58N 51°12' E 003°48'0 0.0
2017-Sep-16 15:28N 51°12' E 003°48'0 0.0
2017-Sep-16 14:58N 51°12' E 003°48'0 0.0
2017-Sep-16 14:28N 51°12' E 003°48'0 0.0
2017-Sep-16 13:58N 51°12' E 003°48'0 0.0
2017-Sep-16 13:28N 51°12' E 003°48'0 0.0
2017-Sep-16 12:58N 51°12' E 003°48'0 0.0
2017-Sep-16 12:28N 51°12' E 003°48'0 0.0
2017-Sep-16 11:58N 51°12' E 003°48'0 0.0
2017-Sep-16 11:28N 51°12' E 003°48'0 0.0
2017-Sep-16 10:58N 51°12' E 003°48'0 0.0
2017-Sep-16 10:28N 51°12' E 003°48'0 0.0
2017-Sep-16 09:58N 51°12' E 003°48'0 0.0
2017-Sep-16 09:28N 51°12' E 003°48'0 0.0
2017-Sep-16 08:58N 51°12' E 003°48'0 0.0
2017-Sep-16 08:28N 51°12' E 003°48'0 0.0
2017-Sep-16 07:58N 51°12' E 003°48'0 0.0
2017-Sep-16 07:28N 51°12' E 003°48'0 0.0
2017-Sep-16 06:58N 51°12' E 003°48'0 0.0
2017-Sep-16 06:28N 51°12' E 003°48'0 0.0
2017-Sep-16 05:58N 51°12' E 003°48'0 0.0
2017-Sep-16 05:28N 51°12' E 003°48'0 0.0
2017-Sep-16 04:58N 51°12' E 003°48'0 0.0
2017-Sep-16 04:28N 51°12' E 003°48'0 0.0
2017-Sep-16 03:52N 51°12' E 003°48'0 0.0
2017-Sep-16 03:28N 51°12' E 003°48'0 0.0
2017-Sep-16 02:58N 51°12' E 003°48'0 0.0
2017-Sep-16 02:28N 51°12' E 003°48'0 0.0
2017-Sep-16 01:58N 51°12' E 003°48'0 0.0
2017-Sep-16 01:28N 51°12' E 003°48'0 0.0
2017-Sep-16 00:58N 51°12' E 003°48'0 0.0
2017-Sep-16 00:28N 51°12' E 003°48'0 0.0
2017-Sep-15 23:58N 51°12' E 003°48'0 0.0
2017-Sep-15 23:28N 51°12' E 003°48'0 0.0
2017-Sep-15 22:58N 51°12' E 003°48'0 0.0
2017-Sep-15 22:28N 51°12' E 003°48'0 0.0
2017-Sep-15 21:58N 51°12' E 003°48'0 0.0
2017-Sep-15 21:28N 51°12' E 003°48'0 0.0
2017-Sep-15 20:58N 51°12' E 003°48'0 0.2
2017-Sep-15 20:28N 51°12' E 003°48'0 0.0
2017-Sep-15 19:58N 51°12' E 003°48'0 0.0
2017-Sep-15 19:28N 51°12' E 003°48'0 0.0
2017-Sep-15 18:58N 51°12' E 003°48'0 0.0
2017-Sep-15 18:28N 51°12' E 003°48'0 0.0
2017-Sep-15 17:58N 51°12' E 003°48'0 0.0
2017-Sep-15 17:28N 51°12' E 003°48'0 0.0
2017-Sep-15 16:58N 51°12' E 003°48'0 0.0
2017-Sep-15 16:28N 51°12' E 003°48'0 0.0
2017-Sep-15 15:58N 51°12' E 003°48'0 0.0
2017-Sep-15 15:28N 51°12' E 003°48'0 0.0
2017-Sep-15 14:58N 51°12' E 003°48'0 0.0
2017-Sep-15 14:28N 51°12' E 003°48'0 0.0
2017-Sep-15 13:58N 51°12' E 003°48'0 0.0
2017-Sep-15 13:28N 51°12' E 003°48'0 0.0
2017-Sep-15 12:58N 51°12' E 003°48'0 0.0
2017-Sep-15 12:28N 51°12' E 003°48'0 0.0
2017-Sep-15 11:58N 51°12' E 003°48'0 0.0
2017-Sep-15 11:28N 51°12' E 003°48'0 0.0
2017-Sep-15 10:55N 51°12' E 003°48'0 0.0
2017-Sep-15 10:28N 51°12' E 003°48'0 0.0
2017-Sep-15 09:55N 51°12' E 003°48'0 0.0
2017-Sep-15 09:28N 51°12' E 003°48'0 0.0
2017-Sep-15 08:58N 51°12' E 003°48'0 0.0
2017-Sep-15 08:28N 51°12' E 003°48'0 0.0
2017-Sep-15 07:58N 51°12' E 003°48'0 0.0
2017-Sep-15 07:28N 51°12' E 003°48'0 0.0
2017-Sep-15 06:58N 51°12' E 003°48'0 0.0
2017-Sep-15 06:28N 51°12' E 003°48'0 0.0
2017-Sep-15 05:58N 51°12' E 003°48'0 0.0
2017-Sep-15 05:28N 51°12' E 003°48'0 0.0
2017-Sep-15 04:58N 51°12' E 003°48'0 0.0
2017-Sep-15 04:28N 51°12' E 003°48'0 0.0
2017-Sep-15 03:58N 51°12' E 003°48'0 0.0
2017-Sep-15 03:28N 51°12' E 003°48'0 0.0
2017-Sep-15 02:58N 51°12' E 003°48'0 0.0
2017-Sep-15 02:29N 51°12' E 003°48'0 0.3
2017-Sep-15 02:00N 51°12' E 003°48'3 5.9
2017-Sep-15 01:31N 51°15' E 003°50'4 7.2
2017-Sep-15 01:01N 51°19' E 003°50'1 2.0
2017-Sep-15 00:30N 51°20' E 003°49'0 1.0
2017-Sep-15 00:00N 51°20' E 003°49'4 7.4
2017-Sep-14 23:30N 51°22' E 003°44'5 9.2
2017-Sep-14 23:00N 51°26' E 003°40'4 9.0
2017-Sep-14 22:30N 51°25' E 003°33'3 5.3
2017-Sep-14 22:00N 51°25' E 003°29'4 7.8
2017-Sep-14 21:31N 51°24' E 003°23'5 9.3
2017-Sep-14 21:01N 51°25' E 003°15'510.0
2017-Sep-14 20:31N 51°24' E 003°07'510.0
2017-Sep-14 20:01N 51°23' E 002°59'611.5
2017-Sep-14 19:30N 51°22' E 002°50'4 8.9
2017-Sep-14 19:00N 51°22' E 002°43'4 8.4
2017-Sep-14 18:31N 51°21' E 002°37'1 1.0
2017-Sep-14 18:01N 51°21' E 002°36'3 6.5
2017-Sep-14 17:31N 51°22' E 002°31'611.6
2017-Sep-14 17:01N 51°20' E 002°22'611.6
2017-Sep-14 16:31N 51°17' E 002°14'611.6
2017-Sep-14 16:01N 51°14' E 002°06'611.2
2017-Sep-14 15:30N 51°11' E 001°59'510.9
2017-Sep-14 15:01N 51°08' E 001°51'510.5
2017-Sep-14 14:30N 51°05' E 001°45'510.3
2017-Sep-14 14:01N 51°02' E 001°39'510.1
2017-Sep-14 13:31N 50°58' E 001°34'510.0
2017-Sep-14 13:01N 50°54' E 001°29'10010.6
2017-Sep-14 03:38N 50°11' W 000°53'212.8
2017-Sep-14 03:30N 50°11' W 000°55'713.3
2017-Sep-14 03:00N 50°09' W 001°05'713.6
2017-Sep-14 02:30N 50°07' W 001°16'714.0
2017-Sep-14 02:00N 50°05' W 001°26'714.2
2017-Sep-14 01:30N 50°03' W 001°37'714.4
2017-Sep-14 01:00N 50°02' W 001°48'714.3
2017-Sep-14 00:31N 49°60' W 001°58'714.1
2017-Sep-14 00:00N 49°58' W 002°09'2712.9
2017-Sep-13 21:56N 49°50' W 002°49'11311.1
2017-Sep-13 11:48N 48°53' W 005°18'311.4
2017-Sep-13 11:30N 48°51' W 005°23'12910.8
2017-Sep-12 23:38N 47°01' W 007°02'48010.4
2017-Sep-11 01:22N 39°19' W 009°59'410.3
2017-Sep-11 00:57N 39°14' W 009°59'410.2
2017-Sep-11 00:30N 39°10' W 009°59'510.3
2017-Sep-11 00:00N 39°05' W 009°59'5 9.8
2017-Sep-10 23:30N 38°60' W 009°59'5 9.8
2017-Sep-10 23:00N 38°55' W 009°59'510.5
2017-Sep-10 22:30N 38°50' W 009°58'510.3
2017-Sep-10 22:00N 38°45' W 009°58'5 9.9
2017-Sep-10 21:30N 38°40' W 009°57'510.0
2017-Sep-10 21:00N 38°35' W 009°56'510.2
2017-Sep-10 20:30N 38°30' W 009°55'510.6
2017-Sep-10 20:01N 38°25' W 009°54'510.7
2017-Sep-10 19:30N 38°19' W 009°52'510.9
2017-Sep-10 19:00N 38°14' W 009°51'510.9
2017-Sep-10 18:30N 38°09' W 009°49'510.9
2017-Sep-10 18:00N 38°04' W 009°47'510.8
2017-Sep-10 17:30N 37°58' W 009°45'510.8
2017-Sep-10 17:00N 37°53' W 009°44'610.6
2017-Sep-10 16:28N 37°48' W 009°42'510.3
2017-Sep-10 16:00N 37°43' W 009°41'510.2
2017-Sep-10 15:30N 37°38' W 009°40'510.1
2017-Sep-10 15:00N 37°33' W 009°38'1010.1
2017-Sep-10 14:00N 37°23' W 009°35'510.2
2017-Sep-10 13:30N 37°18' W 009°33'510.3
2017-Sep-10 13:00N 37°13' W 009°31'  
Track history (hours):
 
Tides and Currents Weather Stations Pressure Air Temp Water Temp Dewpoint Dewpoint Depression Visibility Wind Speed Wind Dir Waves Ship Positions

Scot Bremen

Last reported at 2017-Sep-20 12:42 UTC. Time now 2017-Sep-22 01:13 UTC.
Position N 49°28' W 004°24'.

Length 117 m; draft 6.1 m.

Type: Ship. MMSI: 249086000.

Date/timePositionNaut miles runAvg speedWind from/ knotsBaromVisibWave heightAir tempDewpointWater temp
2017-Sep-20 12:42N 49°28' W 004°24'314.0
2017-Sep-20 12:29N 49°29' W 004°20'714.2
2017-Sep-20 12:00N 49°33' W 004°11'714.6
2017-Sep-20 11:30N 49°36' W 004°01'714.5
2017-Sep-20 11:01N 49°40' W 003°52'714.4
2017-Sep-20 10:30N 49°44' W 003°42'714.1
2017-Sep-20 10:01N 49°48' W 003°33'713.6
2017-Sep-20 09:30N 49°51' W 003°24'613.0
2017-Sep-20 09:01N 49°54' W 003°15'612.4
2017-Sep-20 08:30N 49°57' W 003°06'611.8
2017-Sep-20 08:00N 49°59' W 002°58'611.3
2017-Sep-20 07:31N 50°01' W 002°50'511.0
2017-Sep-20 07:00N 50°02' W 002°41'510.9
2017-Sep-20 06:30N 50°04' W 002°33'611.2
2017-Sep-20 06:00N 50°05' W 002°25'611.6
2017-Sep-20 05:30N 50°07' W 002°16'612.3
2017-Sep-20 05:00N 50°09' W 002°07'713.2
2017-Sep-20 04:30N 50°11' W 001°57'1214.7
2017-Sep-20 03:41N 50°14' W 001°39'4916.1
2017-Sep-20 00:39N 50°27' W 000°25'214.9
2017-Sep-20 00:30N 50°28' W 000°22'714.5
2017-Sep-20 00:00N 50°30' W 000°11'713.8
2017-Sep-19 23:31N 50°31' W 000°01'713.3
2017-Sep-19 23:01N 50°33' E 000°10'612.7
2017-Sep-19 22:31N 50°35' E 000°19'612.3
2017-Sep-19 22:01N 50°37' E 000°28'611.8
2017-Sep-19 21:31N 50°39' E 000°37'611.8
2017-Sep-19 21:01N 50°42' E 000°45'612.0
2017-Sep-19 20:31N 50°46' E 000°52'612.7
2017-Sep-19 20:00N 50°50' E 001°00'713.6
2017-Sep-19 19:30N 50°54' E 001°08'714.8
2017-Sep-19 19:01N 50°59' E 001°17'816.0
2017-Sep-19 18:31N 51°04' E 001°28'816.2
2017-Sep-19 18:01N 51°09' E 001°38'815.4
2017-Sep-19 17:31N 51°14' E 001°47'714.5
2017-Sep-19 17:01N 51°20' E 001°54'713.1
2017-Sep-19 16:31N 51°24' E 002°01'713.5
2017-Sep-19 16:01N 51°22' E 002°11'612.7
2017-Sep-19 15:30N 51°22' E 002°21'612.6
2017-Sep-19 15:00N 51°23' E 002°32'611.9
2017-Sep-19 14:30N 51°23' E 002°41'611.1
2017-Sep-19 14:00N 51°22' E 002°50'611.3
2017-Sep-19 13:31N 51°24' E 002°59'510.7
2017-Sep-19 13:01N 51°24' E 003°07'611.2
2017-Sep-19 12:31N 51°25' E 003°16'510.6
2017-Sep-19 12:01N 51°25' E 003°24'5 9.8
2017-Sep-19 11:30N 51°26' E 003°32'4 8.2
2017-Sep-19 11:00N 51°26' E 003°39'5 9.8
2017-Sep-19 10:31N 51°23' E 003°44'4 8.5
2017-Sep-19 10:00N 51°20' E 003°49'0 0.7
2017-Sep-19 09:30N 51°20' E 003°49'1 2.2
2017-Sep-19 09:01N 51°19' E 003°50'2 4.5
2017-Sep-19 08:30N 51°16' E 003°50'3 6.2
2017-Sep-19 08:01N 51°13' E 003°48'1 2.0
2017-Sep-19 07:28N 51°12' E 003°48'0 0.0
2017-Sep-19 06:58N 51°12' E 003°48'0 0.0
2017-Sep-19 06:28N 51°12' E 003°48'0 0.0
2017-Sep-19 05:58N 51°12' E 003°48'0 0.0
2017-Sep-19 05:28N 51°12' E 003°48'0 0.0
2017-Sep-19 04:58N 51°12' E 003°48'0 0.0
2017-Sep-19 04:28N 51°12' E 003°48'0 0.0
2017-Sep-19 03:58N 51°12' E 003°48'0 0.0
2017-Sep-19 03:28N 51°12' E 003°48'0 0.0
2017-Sep-19 02:58N 51°12' E 003°48'0 0.0
2017-Sep-19 02:28N 51°12' E 003°48'0 0.0
2017-Sep-19 01:58N 51°12' E 003°48'0 0.0
2017-Sep-19 01:28N 51°12' E 003°48'0 0.0
2017-Sep-19 00:58N 51°12' E 003°48'0 0.0
2017-Sep-19 00:28N 51°12' E 003°48'0 0.0
2017-Sep-18 23:58N 51°12' E 003°48'0 0.0
2017-Sep-18 23:28N 51°12' E 003°48'0 0.0
2017-Sep-18 22:58N 51°12' E 003°48'0 0.0
2017-Sep-18 22:28N 51°12' E 003°48'0 0.0
2017-Sep-18 21:58N 51°12' E 003°48'0 0.0
2017-Sep-18 21:28N 51°12' E 003°48'0 0.0
2017-Sep-18 20:58N 51°12' E 003°48'0 0.0
2017-Sep-18 20:28N 51°12' E 003°48'0 0.0
2017-Sep-18 19:58N 51°12' E 003°48'0 0.0
2017-Sep-18 19:28N 51°12' E 003°48'0 0.0
2017-Sep-18 18:58N 51°12' E 003°48'0 0.0
2017-Sep-18 18:28N 51°12' E 003°48'0 0.0
2017-Sep-18 17:58N 51°12' E 003°48'0 0.0
2017-Sep-18 17:28N 51°12' E 003°48'0 0.0
2017-Sep-18 16:58N 51°12' E 003°48'0 0.0
2017-Sep-18 16:28N 51°12' E 003°48'0 0.0
2017-Sep-18 15:58N 51°12' E 003°48'0 0.0
2017-Sep-18 15:28N 51°12' E 003°48'0 0.0
2017-Sep-18 14:58N 51°12' E 003°48'0 0.0
2017-Sep-18 14:28N 51°12' E 003°48'0 0.0
2017-Sep-18 13:58N 51°12' E 003°48'0 0.0
2017-Sep-18 13:28N 51°12' E 003°48'0 0.0
2017-Sep-18 12:58N 51°12' E 003°48'0 0.0
2017-Sep-18 12:28N 51°12' E 003°48'0 0.0
2017-Sep-18 11:58N 51°12' E 003°48'0 0.0
2017-Sep-18 11:28N 51°12' E 003°48'0 0.0
2017-Sep-18 10:58N 51°12' E 003°48'0 0.0
2017-Sep-18 10:28N 51°12' E 003°48'0 0.0
2017-Sep-18 09:58N 51°12' E 003°48'0 0.0
2017-Sep-18 09:28N 51°12' E 003°48'0 0.0
2017-Sep-18 08:58N 51°12' E 003°48'0 0.0
2017-Sep-18 08:28N 51°12' E 003°48'0 0.0
2017-Sep-18 07:58N 51°12' E 003°48'0 0.0
2017-Sep-18 07:28N 51°12' E 003°48'0 0.0
2017-Sep-18 06:58N 51°12' E 003°48'0 0.0
2017-Sep-18 06:28N 51°12' E 003°48'0 0.0
2017-Sep-18 05:58N 51°12' E 003°48'0 0.0
2017-Sep-18 05:28N 51°12' E 003°48'0 0.0
2017-Sep-18 04:58N 51°12' E 003°48'0 0.0
2017-Sep-18 04:28N 51°12' E 003°48'0 0.0
2017-Sep-18 03:58N 51°12' E 003°48'0 0.0
2017-Sep-18 03:28N 51°12' E 003°48'0 0.0
2017-Sep-18 02:58N 51°12' E 003°48'0 0.0
2017-Sep-18 02:25N 51°12' E 003°48'0 0.0
2017-Sep-18 01:58N 51°12' E 003°48'0 0.0
2017-Sep-18 01:28N 51°12' E 003°48'0 0.0
2017-Sep-18 00:58N 51°12' E 003°48'0 0.0
2017-Sep-18 00:28N 51°12' E 003°48'0 0.0
2017-Sep-17 23:58N 51°12' E 003°48'0 0.0
2017-Sep-17 23:28N 51°12' E 003°48'0 0.0
2017-Sep-17 22:58N 51°12' E 003°48'0 0.0
2017-Sep-17 22:28N 51°12' E 003°48'0 0.0
2017-Sep-17 21:58N 51°12' E 003°48'0 0.0
2017-Sep-17 21:28N 51°12' E 003°48'0 0.0
2017-Sep-17 20:58N 51°12' E 003°48'0 0.0
2017-Sep-17 20:28N 51°12' E 003°48'0 0.0
2017-Sep-17 19:58N 51°12' E 003°48'0 0.0
2017-Sep-17 19:28N 51°12' E 003°48'0 0.0
2017-Sep-17 18:58N 51°12' E 003°48'0 0.0
2017-Sep-17 18:28N 51°12' E 003°48'0 0.0
2017-Sep-17 17:58N 51°12' E 003°48'0 0.0
2017-Sep-17 17:28N 51°12' E 003°48'0 0.0
2017-Sep-17 16:58N 51°12' E 003°48'0 0.0
2017-Sep-17 16:28N 51°12' E 003°48'0 0.2
2017-Sep-17 15:58N 51°12' E 003°48'0 0.0
2017-Sep-17 15:28N 51°12' E 003°48'0 0.0
2017-Sep-17 14:58N 51°12' E 003°48'0 0.0
2017-Sep-17 14:28N 51°12' E 003°48'0 0.0
2017-Sep-17 13:58N 51°12' E 003°48'0 0.0
2017-Sep-17 13:28N 51°12' E 003°48'0 0.0
2017-Sep-17 12:58N 51°12' E 003°48'0 0.0
2017-Sep-17 12:28N 51°12' E 003°48'0 0.0
2017-Sep-17 11:58N 51°12' E 003°48'0 0.0
2017-Sep-17 11:28N 51°12' E 003°48'0 0.0
2017-Sep-17 10:58N 51°12' E 003°48'0 0.0
2017-Sep-17 10:28N 51°12' E 003°48'0 0.0
2017-Sep-17 09:55N 51°12' E 003°48'0 0.0
2017-Sep-17 09:28N 51°12' E 003°48'0 0.0
2017-Sep-17 08:58N 51°12' E 003°48'0 0.0
2017-Sep-17 08:28N 51°12' E 003°48'0 0.0
2017-Sep-17 07:58N 51°12' E 003°48'0 0.0
2017-Sep-17 07:28N 51°12' E 003°48'0 0.0
2017-Sep-17 06:58N 51°12' E 003°48'0 0.0
2017-Sep-17 06:28N 51°12' E 003°48'0 0.0
2017-Sep-17 05:58N 51°12' E 003°48'0 0.0
2017-Sep-17 05:28N 51°12' E 003°48'0 0.0
2017-Sep-17 04:58N 51°12' E 003°48'0 0.0
2017-Sep-17 04:28N 51°12' E 003°48'0 0.0
2017-Sep-17 03:58N 51°12' E 003°48'0 0.0
2017-Sep-17 03:28N 51°12' E 003°48'0 0.0
2017-Sep-17 02:58N 51°12' E 003°48'0 0.0
2017-Sep-17 02:28N 51°12' E 003°48'0 0.0
2017-Sep-17 01:58N 51°12' E 003°48'0 0.0
2017-Sep-17 01:28N 51°12' E 003°48'0 0.0
2017-Sep-17 00:58N 51°12' E 003°48'0 0.0
2017-Sep-17 00:28N 51°12' E 003°48'0 0.0
2017-Sep-16 23:58N 51°12' E 003°48'0 0.0
2017-Sep-16 23:28N 51°12' E 003°48'0 0.0
2017-Sep-16 22:58N 51°12' E 003°48'0 0.0
2017-Sep-16 22:28N 51°12' E 003°48'0 0.0
2017-Sep-16 21:58N 51°12' E 003°48'0 0.0
2017-Sep-16 21:28N 51°12' E 003°48'0 0.0
2017-Sep-16 20:58N 51°12' E 003°48'0 0.0
2017-Sep-16 20:28N 51°12' E 003°48'0 0.0
2017-Sep-16 19:58N 51°12' E 003°48'0 0.0
2017-Sep-16 19:28N 51°12' E 003°48'0 0.0
2017-Sep-16 18:58N 51°12' E 003°48'0 0.0
2017-Sep-16 18:28N 51°12' E 003°48'0 0.0
2017-Sep-16 17:58N 51°12' E 003°48'0 0.0
2017-Sep-16 17:28N 51°12' E 003°48'0 0.0
2017-Sep-16 16:55N 51°12' E 003°48'0 0.0
2017-Sep-16 16:28N 51°12' E 003°48'0 0.0
2017-Sep-16 15:58N 51°12' E 003°48'0 0.0
2017-Sep-16 15:28N 51°12' E 003°48'0 0.0
2017-Sep-16 14:58N 51°12' E 003°48'0 0.0
2017-Sep-16 14:28N 51°12' E 003°48'0 0.0
2017-Sep-16 13:58N 51°12' E 003°48'0 0.0
2017-Sep-16 13:28N 51°12' E 003°48'0 0.0
2017-Sep-16 12:58N 51°12' E 003°48'0 0.0
2017-Sep-16 12:28N 51°12' E 003°48'0 0.0
2017-Sep-16 11:58N 51°12' E 003°48'0 0.0
2017-Sep-16 11:28N 51°12' E 003°48'0 0.0
2017-Sep-16 10:58N 51°12' E 003°48'0 0.0
2017-Sep-16 10:28N 51°12' E 003°48'0 0.0
2017-Sep-16 09:58N 51°12' E 003°48'0 0.0
2017-Sep-16 09:28N 51°12' E 003°48'0 0.0
2017-Sep-16 08:58N 51°12' E 003°48'0 0.0
2017-Sep-16 08:28N 51°12' E 003°48'0 0.0
2017-Sep-16 07:58N 51°12' E 003°48'0 0.0
2017-Sep-16 07:28N 51°12' E 003°48'0 0.0
2017-Sep-16 06:58N 51°12' E 003°48'0 0.0
2017-Sep-16 06:28N 51°12' E 003°48'0 0.0
2017-Sep-16 05:58N 51°12' E 003°48'0 0.0
2017-Sep-16 05:28N 51°12' E 003°48'0 0.0
2017-Sep-16 04:58N 51°12' E 003°48'0 0.0
2017-Sep-16 04:28N 51°12' E 003°48'0 0.0
2017-Sep-16 03:52N 51°12' E 003°48'0 0.0
2017-Sep-16 03:28N 51°12' E 003°48'0 0.0
2017-Sep-16 02:58N 51°12' E 003°48'0 0.0
2017-Sep-16 02:28N 51°12' E 003°48'0 0.0
2017-Sep-16 01:58N 51°12' E 003°48'0 0.0
2017-Sep-16 01:28N 51°12' E 003°48'0 0.0
2017-Sep-16 00:58N 51°12' E 003°48'0 0.0
2017-Sep-16 00:28N 51°12' E 003°48'0 0.0
2017-Sep-15 23:58N 51°12' E 003°48'0 0.0
2017-Sep-15 23:28N 51°12' E 003°48'0 0.0
2017-Sep-15 22:58N 51°12' E 003°48'0 0.0
2017-Sep-15 22:28N 51°12' E 003°48'0 0.0
2017-Sep-15 21:58N 51°12' E 003°48'0 0.0
2017-Sep-15 21:28N 51°12' E 003°48'0 0.0
2017-Sep-15 20:58N 51°12' E 003°48'0 0.2
2017-Sep-15 20:28N 51°12' E 003°48'0 0.0
2017-Sep-15 19:58N 51°12' E 003°48'0 0.0
2017-Sep-15 19:28N 51°12' E 003°48'0 0.0
2017-Sep-15 18:58N 51°12' E 003°48'0 0.0
2017-Sep-15 18:28N 51°12' E 003°48'0 0.0
2017-Sep-15 17:58N 51°12' E 003°48'0 0.0
2017-Sep-15 17:28N 51°12' E 003°48'0 0.0
2017-Sep-15 16:58N 51°12' E 003°48'0 0.0
2017-Sep-15 16:28N 51°12' E 003°48'0 0.0
2017-Sep-15 15:58N 51°12' E 003°48'0 0.0
2017-Sep-15 15:28N 51°12' E 003°48'0 0.0
2017-Sep-15 14:58N 51°12' E 003°48'0 0.0
2017-Sep-15 14:28N 51°12' E 003°48'0 0.0
2017-Sep-15 13:58N 51°12' E 003°48'0 0.0
2017-Sep-15 13:28N 51°12' E 003°48'0 0.0
2017-Sep-15 12:58N 51°12' E 003°48'0 0.0
2017-Sep-15 12:28N 51°12' E 003°48'0 0.0
2017-Sep-15 11:58N 51°12' E 003°48'0 0.0
2017-Sep-15 11:28N 51°12' E 003°48'0 0.0
2017-Sep-15 10:55N 51°12' E 003°48'0 0.0
2017-Sep-15 10:28N 51°12' E 003°48'0 0.0
2017-Sep-15 09:55N 51°12' E 003°48'0 0.0
2017-Sep-15 09:28N 51°12' E 003°48'0 0.0
2017-Sep-15 08:58N 51°12' E 003°48'0 0.0
2017-Sep-15 08:28N 51°12' E 003°48'0 0.0
2017-Sep-15 07:58N 51°12' E 003°48'0 0.0
2017-Sep-15 07:28N 51°12' E 003°48'0 0.0
2017-Sep-15 06:58N 51°12' E 003°48'0 0.0
2017-Sep-15 06:28N 51°12' E 003°48'0 0.0
2017-Sep-15 05:58N 51°12' E 003°48'0 0.0
2017-Sep-15 05:28N 51°12' E 003°48'0 0.0
2017-Sep-15 04:58N 51°12' E 003°48'0 0.0
2017-Sep-15 04:28N 51°12' E 003°48'0 0.0
2017-Sep-15 03:58N 51°12' E 003°48'0 0.0
2017-Sep-15 03:28N 51°12' E 003°48'0 0.0
2017-Sep-15 02:58N 51°12' E 003°48'0 0.0
2017-Sep-15 02:29N 51°12' E 003°48'0 0.3
2017-Sep-15 02:00N 51°12' E 003°48'3 5.9
2017-Sep-15 01:31N 51°15' E 003°50'4 7.2
2017-Sep-15 01:01N 51°19' E 003°50'1 2.0
2017-Sep-15 00:30N 51°20' E 003°49'0 1.0
2017-Sep-15 00:00N 51°20' E 003°49'4 7.4
2017-Sep-14 23:30N 51°22' E 003°44'5 9.2
2017-Sep-14 23:00N 51°26' E 003°40'4 9.0
2017-Sep-14 22:30N 51°25' E 003°33'3 5.3
2017-Sep-14 22:00N 51°25' E 003°29'4 7.8
2017-Sep-14 21:31N 51°24' E 003°23'5 9.3
2017-Sep-14 21:01N 51°25' E 003°15'510.0
2017-Sep-14 20:31N 51°24' E 003°07'510.0
2017-Sep-14 20:01N 51°23' E 002°59'611.5
2017-Sep-14 19:30N 51°22' E 002°50'4 8.9
2017-Sep-14 19:00N 51°22' E 002°43'4 8.4
2017-Sep-14 18:31N 51°21' E 002°37'1 1.0
2017-Sep-14 18:01N 51°21' E 002°36'3 6.5
2017-Sep-14 17:31N 51°22' E 002°31'611.6
2017-Sep-14 17:01N 51°20' E 002°22'611.6
2017-Sep-14 16:31N 51°17' E 002°14'611.6
2017-Sep-14 16:01N 51°14' E 002°06'611.2
2017-Sep-14 15:30N 51°11' E 001°59'510.9
2017-Sep-14 15:01N 51°08' E 001°51'510.5
2017-Sep-14 14:30N 51°05' E 001°45'510.3
2017-Sep-14 14:01N 51°02' E 001°39'510.1
2017-Sep-14 13:31N 50°58' E 001°34'510.0
2017-Sep-14 13:01N 50°54' E 001°29'10010.6
2017-Sep-14 03:38N 50°11' W 000°53'212.8
2017-Sep-14 03:30N 50°11' W 000°55'713.3
2017-Sep-14 03:00N 50°09' W 001°05'713.6
2017-Sep-14 02:30N 50°07' W 001°16'714.0
2017-Sep-14 02:00N 50°05' W 001°26'714.2
2017-Sep-14 01:30N 50°03' W 001°37'714.4
2017-Sep-14 01:00N 50°02' W 001°48'714.3
2017-Sep-14 00:31N 49°60' W 001°58'714.1
2017-Sep-14 00:00N 49°58' W 002°09'2712.9
2017-Sep-13 21:56N 49°50' W 002°49'11311.1
2017-Sep-13 11:48N 48°53' W 005°18'311.4
2017-Sep-13 11:30N 48°51' W 005°23'12910.8
2017-Sep-12 23:38N 47°01' W 007°02'48010.4
2017-Sep-11 01:22N 39°19' W 009°59'410.3
2017-Sep-11 00:57N 39°14' W 009°59'410.2
2017-Sep-11 00:30N 39°10' W 009°59'510.3
2017-Sep-11 00:00N 39°05' W 009°59'5 9.8
2017-Sep-10 23:30N 38°60' W 009°59'5 9.8
2017-Sep-10 23:00N 38°55' W 009°59'510.5
2017-Sep-10 22:30N 38°50' W 009°58'510.3
2017-Sep-10 22:00N 38°45' W 009°58'5 9.9
2017-Sep-10 21:30N 38°40' W 009°57'510.0
2017-Sep-10 21:00N 38°35' W 009°56'510.2
2017-Sep-10 20:30N 38°30' W 009°55'510.6
2017-Sep-10 20:01N 38°25' W 009°54'510.7
2017-Sep-10 19:30N 38°19' W 009°52'510.9
2017-Sep-10 19:00N 38°14' W 009°51'510.9
2017-Sep-10 18:30N 38°09' W 009°49'510.9
2017-Sep-10 18:00N 38°04' W 009°47'510.8
2017-Sep-10 17:30N 37°58' W 009°45'510.8
2017-Sep-10 17:00N 37°53' W 009°44'610.6
2017-Sep-10 16:28N 37°48' W 009°42'510.3
2017-Sep-10 16:00N 37°43' W 009°41'510.2
2017-Sep-10 15:30N 37°38' W 009°40'510.1
2017-Sep-10 15:00N 37°33' W 009°38'1010.1
2017-Sep-10 14:00N 37°23' W 009°35'510.2
2017-Sep-10 13:30N 37°18' W 009°33'510.3
2017-Sep-10 13:00N 37°13' W 009°31'  

Dump ship's entire track history